sensor_id;sensor_type;location;lat;lon;timestamp;P1;durP1;ratioP1;P2;durP2;ratioP2
49041;SDS011;34859;51.608;11.462;2024-01-10T00:01:36;47.80;;;18.52;;
49041;SDS011;34859;51.608;11.462;2024-01-10T00:04:22;49.38;;;20.42;;
49041;SDS011;34859;51.608;11.462;2024-01-10T00:07:09;47.00;;;19.00;;
49041;SDS011;34859;51.608;11.462;2024-01-10T00:09:56;48.22;;;19.55;;
49041;SDS011;34859;51.608;11.462;2024-01-10T00:12:46;42.88;;;17.38;;
49041;SDS011;34859;51.608;11.462;2024-01-10T00:15:34;41.03;;;17.52;;
49041;SDS011;34859;51.608;11.462;2024-01-10T00:18:21;41.40;;;18.02;;
49041;SDS011;34859;51.608;11.462;2024-01-10T00:21:09;42.05;;;17.88;;
49041;SDS011;34859;51.608;11.462;2024-01-10T00:23:57;43.92;;;18.08;;
49041;SDS011;34859;51.608;11.462;2024-01-10T00:26:44;40.42;;;17.08;;
49041;SDS011;34859;51.608;11.462;2024-01-10T00:29:32;41.97;;;17.48;;
49041;SDS011;34859;51.608;11.462;2024-01-10T00:32:19;40.33;;;17.05;;
49041;SDS011;34859;51.608;11.462;2024-01-10T00:35:07;45.60;;;16.80;;
49041;SDS011;34859;51.608;11.462;2024-01-10T00:37:56;42.90;;;17.15;;
49041;SDS011;34859;51.608;11.462;2024-01-10T00:40:43;37.47;;;17.05;;
49041;SDS011;34859;51.608;11.462;2024-01-10T00:43:30;38.25;;;16.02;;
49041;SDS011;34859;51.608;11.462;2024-01-10T00:46:19;35.95;;;15.60;;
49041;SDS011;34859;51.608;11.462;2024-01-10T00:49:07;38.30;;;17.30;;
49041;SDS011;34859;51.608;11.462;2024-01-10T00:51:54;45.40;;;16.23;;
49041;SDS011;34859;51.608;11.462;2024-01-10T00:55:36;35.00;;;15.27;;
49041;SDS011;34859;51.608;11.462;2024-01-10T00:59:01;33.67;;;15.13;;
49041;SDS011;34859;51.608;11.462;2024-01-10T01:03:02;41.58;;;15.70;;
49041;SDS011;34859;51.608;11.462;2024-01-10T01:10:55;35.33;;;14.80;;
49041;SDS011;34859;51.608;11.462;2024-01-10T01:22:43;39.05;;;16.25;;
49041;SDS011;34859;51.608;11.462;2024-01-10T01:26:08;45.28;;;16.83;;
49041;SDS011;34859;51.608;11.462;2024-01-10T01:37:02;43.72;;;17.80;;
49041;SDS011;34859;51.608;11.462;2024-01-10T01:56:02;42.53;;;16.13;;
49041;SDS011;34859;51.608;11.462;2024-01-10T01:59:43;37.75;;;15.98;;
49041;SDS011;34859;51.608;11.462;2024-01-10T02:14:31;40.97;;;16.05;;
49041;SDS011;34859;51.608;11.462;2024-01-10T02:21:58;43.20;;;15.48;;
49041;SDS011;34859;51.608;11.462;2024-01-10T02:26:01;39.10;;;16.02;;
49041;SDS011;34859;51.608;11.462;2024-01-10T02:32:56;40.72;;;17.05;;
49041;SDS011;34859;51.608;11.462;2024-01-10T02:36:25;44.60;;;15.77;;
49041;SDS011;34859;51.608;11.462;2024-01-10T02:39:55;42.95;;;17.05;;
49041;SDS011;34859;51.608;11.462;2024-01-10T02:47:56;36.97;;;14.82;;
49041;SDS011;34859;51.608;11.462;2024-01-10T02:55:07;41.15;;;15.52;;
49041;SDS011;34859;51.608;11.462;2024-01-10T02:58:12;37.00;;;16.08;;
49041;SDS011;34859;51.608;11.462;2024-01-10T03:01:27;37.88;;;14.90;;
49041;SDS011;34859;51.608;11.462;2024-01-10T03:04:38;41.53;;;16.10;;
49041;SDS011;34859;51.608;11.462;2024-01-10T03:12:10;41.28;;;16.25;;
49041;SDS011;34859;51.608;11.462;2024-01-10T03:23:59;36.08;;;15.63;;
49041;SDS011;34859;51.608;11.462;2024-01-10T03:31:32;39.65;;;16.20;;
49041;SDS011;34859;51.608;11.462;2024-01-10T03:35:04;40.08;;;16.25;;
49041;SDS011;34859;51.608;11.462;2024-01-10T03:42:34;37.42;;;15.40;;
49041;SDS011;34859;51.608;11.462;2024-01-10T03:46:53;37.45;;;16.20;;
49041;SDS011;34859;51.608;11.462;2024-01-10T03:50:55;37.75;;;15.30;;
49041;SDS011;34859;51.608;11.462;2024-01-10T03:57:46;41.58;;;17.20;;
49041;SDS011;34859;51.608;11.462;2024-01-10T04:27:44;35.95;;;16.25;;
49041;SDS011;34859;51.608;11.462;2024-01-10T04:38:45;45.17;;;15.48;;
49041;SDS011;34859;51.608;11.462;2024-01-10T04:53:33;41.28;;;17.05;;
49041;SDS011;34859;51.608;11.462;2024-01-10T05:16:34;43.15;;;17.23;;
49041;SDS011;34859;51.608;11.462;2024-01-10T05:27:40;54.75;;;18.40;;
49041;SDS011;34859;51.608;11.462;2024-01-10T05:31:24;45.95;;;17.60;;
49041;SDS011;34859;51.608;11.462;2024-01-10T06:36:09;46.25;;;18.85;;
49041;SDS011;34859;51.608;11.462;2024-01-10T06:51:17;49.90;;;18.95;;
49041;SDS011;34859;51.608;11.462;2024-01-10T06:55:15;51.20;;;18.77;;
49041;SDS011;34859;51.608;11.462;2024-01-10T07:18:38;41.15;;;17.38;;
49041;SDS011;34859;51.608;11.462;2024-01-10T07:25:58;51.63;;;18.73;;
49041;SDS011;34859;51.608;11.462;2024-01-10T07:33:52;48.25;;;18.27;;
49041;SDS011;34859;51.608;11.462;2024-01-10T07:45:33;63.13;;;23.60;;
49041;SDS011;34859;51.608;11.462;2024-01-10T08:15:40;56.95;;;19.90;;
49041;SDS011;34859;51.608;11.462;2024-01-10T09:22:12;75.30;;;27.95;;
49041;SDS011;34859;51.608;11.462;2024-01-10T09:29:52;72.60;;;28.83;;
49041;SDS011;34859;51.608;11.462;2024-01-10T09:48:03;86.28;;;32.47;;
49041;SDS011;34859;51.608;11.462;2024-01-10T09:52:10;156.82;;;62.20;;
49041;SDS011;34859;51.608;11.462;2024-01-10T09:55:44;81.22;;;31.73;;
49041;SDS011;34859;51.608;11.462;2024-01-10T10:14:21;83.35;;;36.90;;
49041;SDS011;34859;51.608;11.462;2024-01-10T10:18:13;93.50;;;37.60;;
49041;SDS011;34859;51.608;11.462;2024-01-10T10:33:32;99.30;;;38.60;;
49041;SDS011;34859;51.608;11.462;2024-01-10T10:49:41;97.78;;;38.85;;
49041;SDS011;34859;51.608;11.462;2024-01-10T10:53:37;102.53;;;37.17;;
49041;SDS011;34859;51.608;11.462;2024-01-10T10:57:27;90.25;;;37.47;;
49041;SDS011;34859;51.608;11.462;2024-01-10T11:04:38;95.82;;;37.67;;
49041;SDS011;34859;51.608;11.462;2024-01-10T11:27:11;91.30;;;36.97;;
49041;SDS011;34859;51.608;11.462;2024-01-10T11:41:49;97.57;;;40.45;;
49041;SDS011;34859;51.608;11.462;2024-01-10T11:45:36;92.53;;;38.15;;
49041;SDS011;34859;51.608;11.462;2024-01-10T11:57:35;93.88;;;40.42;;
49041;SDS011;34859;51.608;11.462;2024-01-10T12:04:38;90.88;;;40.03;;
49041;SDS011;34859;51.608;11.462;2024-01-10T12:07:24;99.15;;;39.85;;
49041;SDS011;34859;51.608;11.462;2024-01-10T12:10:10;91.80;;;39.88;;
49041;SDS011;34859;51.608;11.462;2024-01-10T12:12:56;99.05;;;39.17;;
49041;SDS011;34859;51.608;11.462;2024-01-10T12:15:42;88.38;;;38.85;;
49041;SDS011;34859;51.608;11.462;2024-01-10T12:18:28;87.13;;;38.42;;
49041;SDS011;34859;51.608;11.462;2024-01-10T12:21:14;88.30;;;38.40;;
49041;SDS011;34859;51.608;11.462;2024-01-10T12:23:59;82.05;;;38.60;;
49041;SDS011;34859;51.608;11.462;2024-01-10T12:26:46;90.05;;;39.75;;
49041;SDS011;34859;51.608;11.462;2024-01-10T12:29:32;90.68;;;39.22;;
49041;SDS011;34859;51.608;11.462;2024-01-10T12:32:19;86.65;;;39.25;;
49041;SDS011;34859;51.608;11.462;2024-01-10T12:35:07;88.28;;;38.70;;
49041;SDS011;34859;51.608;11.462;2024-01-10T12:37:56;92.88;;;38.55;;
49041;SDS011;34859;51.608;11.462;2024-01-10T12:40:42;97.20;;;40.05;;
49041;SDS011;34859;51.608;11.462;2024-01-10T12:43:27;93.63;;;40.15;;
49041;SDS011;34859;51.608;11.462;2024-01-10T12:46:13;88.70;;;39.00;;
49041;SDS011;34859;51.608;11.462;2024-01-10T12:49:02;87.80;;;40.17;;
49041;SDS011;34859;51.608;11.462;2024-01-10T12:51:52;90.80;;;38.25;;
49041;SDS011;34859;51.608;11.462;2024-01-10T12:54:38;92.90;;;41.33;;
49041;SDS011;34859;51.608;11.462;2024-01-10T12:57:24;93.85;;;40.15;;
49041;SDS011;34859;51.608;11.462;2024-01-10T13:00:09;90.07;;;40.53;;
49041;SDS011;34859;51.608;11.462;2024-01-10T13:02:56;92.72;;;39.95;;
49041;SDS011;34859;51.608;11.462;2024-01-10T13:05:43;92.25;;;41.22;;
49041;SDS011;34859;51.608;11.462;2024-01-10T13:08:29;90.85;;;39.60;;
49041;SDS011;34859;51.608;11.462;2024-01-10T13:11:14;99.03;;;40.47;;
49041;SDS011;34859;51.608;11.462;2024-01-10T13:14:00;93.20;;;39.33;;
49041;SDS011;34859;51.608;11.462;2024-01-10T13:16:46;83.32;;;39.78;;
49041;SDS011;34859;51.608;11.462;2024-01-10T13:19:31;90.68;;;41.90;;
49041;SDS011;34859;51.608;11.462;2024-01-10T13:22:17;97.43;;;42.05;;
49041;SDS011;34859;51.608;11.462;2024-01-10T13:25:05;99.60;;;43.08;;
49041;SDS011;34859;51.608;11.462;2024-01-10T13:27:51;95.00;;;41.92;;
49041;SDS011;34859;51.608;11.462;2024-01-10T13:30:38;99.15;;;40.83;;
49041;SDS011;34859;51.608;11.462;2024-01-10T13:33:26;92.10;;;41.53;;
49041;SDS011;34859;51.608;11.462;2024-01-10T13:36:11;94.60;;;41.33;;
49041;SDS011;34859;51.608;11.462;2024-01-10T13:38:57;99.85;;;42.70;;
49041;SDS011;34859;51.608;11.462;2024-01-10T13:41:43;93.07;;;39.72;;
49041;SDS011;34859;51.608;11.462;2024-01-10T13:44:28;88.93;;;41.30;;
49041;SDS011;34859;51.608;11.462;2024-01-10T13:47:14;92.90;;;40.95;;
49041;SDS011;34859;51.608;11.462;2024-01-10T13:50:02;91.07;;;41.70;;
49041;SDS011;34859;51.608;11.462;2024-01-10T13:52:48;98.55;;;43.03;;
49041;SDS011;34859;51.608;11.462;2024-01-10T13:55:34;100.95;;;42.65;;
49041;SDS011;34859;51.608;11.462;2024-01-10T13:58:20;90.15;;;39.05;;
49041;SDS011;34859;51.608;11.462;2024-01-10T14:01:08;93.75;;;40.53;;
49041;SDS011;34859;51.608;11.462;2024-01-10T14:03:54;91.82;;;40.60;;
49041;SDS011;34859;51.608;11.462;2024-01-10T14:06:40;93.85;;;42.00;;
49041;SDS011;34859;51.608;11.462;2024-01-10T14:09:25;87.70;;;39.28;;
49041;SDS011;34859;51.608;11.462;2024-01-10T14:12:11;85.60;;;37.83;;
49041;SDS011;34859;51.608;11.462;2024-01-10T14:14:57;99.95;;;42.22;;
49041;SDS011;34859;51.608;11.462;2024-01-10T14:17:45;86.82;;;40.22;;
49041;SDS011;34859;51.608;11.462;2024-01-10T14:20:31;90.15;;;39.17;;
49041;SDS011;34859;51.608;11.462;2024-01-10T14:23:17;88.07;;;40.75;;
49041;SDS011;34859;51.608;11.462;2024-01-10T14:26:03;98.00;;;40.97;;
49041;SDS011;34859;51.608;11.462;2024-01-10T14:28:50;90.88;;;41.78;;
49041;SDS011;34859;51.608;11.462;2024-01-10T14:31:38;98.35;;;42.05;;
49041;SDS011;34859;51.608;11.462;2024-01-10T14:34:24;84.97;;;39.50;;
49041;SDS011;34859;51.608;11.462;2024-01-10T14:37:10;91.68;;;42.55;;
49041;SDS011;34859;51.608;11.462;2024-01-10T14:39:56;95.18;;;42.92;;
49041;SDS011;34859;51.608;11.462;2024-01-10T14:42:43;96.85;;;43.50;;
49041;SDS011;34859;51.608;11.462;2024-01-10T14:45:28;99.55;;;43.03;;
49041;SDS011;34859;51.608;11.462;2024-01-10T14:48:14;87.22;;;40.25;;
49041;SDS011;34859;51.608;11.462;2024-01-10T14:51:00;86.15;;;40.70;;
49041;SDS011;34859;51.608;11.462;2024-01-10T14:53:46;102.95;;;43.95;;
49041;SDS011;34859;51.608;11.462;2024-01-10T14:56:31;98.13;;;42.47;;
49041;SDS011;34859;51.608;11.462;2024-01-10T14:59:17;95.85;;;41.28;;
49041;SDS011;34859;51.608;11.462;2024-01-10T15:02:03;99.03;;;43.97;;
49041;SDS011;34859;51.608;11.462;2024-01-10T15:04:52;94.43;;;42.20;;
49041;SDS011;34859;51.608;11.462;2024-01-10T15:07:37;102.38;;;43.92;;
49041;SDS011;34859;51.608;11.462;2024-01-10T15:10:23;88.85;;;41.58;;
49041;SDS011;34859;51.608;11.462;2024-01-10T15:13:12;88.13;;;40.13;;
49041;SDS011;34859;51.608;11.462;2024-01-10T15:15:57;91.80;;;41.03;;
49041;SDS011;34859;51.608;11.462;2024-01-10T15:18:43;95.70;;;41.42;;
49041;SDS011;34859;51.608;11.462;2024-01-10T15:21:30;93.28;;;40.85;;
49041;SDS011;34859;51.608;11.462;2024-01-10T15:24:15;90.35;;;39.85;;
49041;SDS011;34859;51.608;11.462;2024-01-10T15:27:01;99.15;;;38.20;;
49041;SDS011;34859;51.608;11.462;2024-01-10T15:29:51;119.90;;;53.47;;
49041;SDS011;34859;51.608;11.462;2024-01-10T15:32:36;120.45;;;56.17;;
49041;SDS011;34859;51.608;11.462;2024-01-10T15:35:23;89.18;;;40.80;;
49041;SDS011;34859;51.608;11.462;2024-01-10T15:38:09;92.28;;;41.85;;
49041;SDS011;34859;51.608;11.462;2024-01-10T15:40:55;95.32;;;40.90;;
49041;SDS011;34859;51.608;11.462;2024-01-10T15:43:42;102.47;;;45.25;;
49041;SDS011;34859;51.608;11.462;2024-01-10T15:46:27;127.30;;;60.90;;
49041;SDS011;34859;51.608;11.462;2024-01-10T15:49:13;106.35;;;48.05;;
49041;SDS011;34859;51.608;11.462;2024-01-10T15:51:59;97.13;;;41.88;;
49041;SDS011;34859;51.608;11.462;2024-01-10T15:54:44;99.22;;;44.15;;
49041;SDS011;34859;51.608;11.462;2024-01-10T15:57:32;97.93;;;45.70;;
49041;SDS011;34859;51.608;11.462;2024-01-10T16:00:18;102.40;;;44.42;;
49041;SDS011;34859;51.608;11.462;2024-01-10T16:03:03;105.45;;;46.55;;
49041;SDS011;34859;51.608;11.462;2024-01-10T16:05:51;95.45;;;43.53;;
49041;SDS011;34859;51.608;11.462;2024-01-10T16:08:37;103.47;;;45.90;;
49041;SDS011;34859;51.608;11.462;2024-01-10T16:11:23;108.40;;;43.53;;
49041;SDS011;34859;51.608;11.462;2024-01-10T16:14:09;104.15;;;46.15;;
49041;SDS011;34859;51.608;11.462;2024-01-10T16:16:55;107.68;;;45.85;;
49041;SDS011;34859;51.608;11.462;2024-01-10T16:19:41;107.28;;;44.95;;
49041;SDS011;34859;51.608;11.462;2024-01-10T16:22:26;90.53;;;41.75;;
49041;SDS011;34859;51.608;11.462;2024-01-10T16:25:12;99.65;;;44.55;;
49041;SDS011;34859;51.608;11.462;2024-01-10T16:27:58;116.40;;;48.70;;
49041;SDS011;34859;51.608;11.462;2024-01-10T16:30:43;113.50;;;49.75;;
49041;SDS011;34859;51.608;11.462;2024-01-10T16:33:29;109.85;;;47.88;;
49041;SDS011;34859;51.608;11.462;2024-01-10T16:36:14;115.25;;;49.60;;
49041;SDS011;34859;51.608;11.462;2024-01-10T16:39:00;122.63;;;51.33;;
49041;SDS011;34859;51.608;11.462;2024-01-10T16:41:46;115.40;;;50.50;;
49041;SDS011;34859;51.608;11.462;2024-01-10T16:44:32;114.20;;;47.53;;
49041;SDS011;34859;51.608;11.462;2024-01-10T16:47:18;116.57;;;47.90;;
49041;SDS011;34859;51.608;11.462;2024-01-10T16:50:03;120.28;;;50.00;;
49041;SDS011;34859;51.608;11.462;2024-01-10T16:52:49;119.45;;;50.67;;
49041;SDS011;34859;51.608;11.462;2024-01-10T16:55:35;111.40;;;47.22;;
49041;SDS011;34859;51.608;11.462;2024-01-10T16:58:21;101.18;;;43.63;;
49041;SDS011;34859;51.608;11.462;2024-01-10T17:01:07;104.20;;;47.10;;
49041;SDS011;34859;51.608;11.462;2024-01-10T17:03:53;122.53;;;55.30;;
49041;SDS011;34859;51.608;11.462;2024-01-10T17:06:40;124.85;;;54.88;;
49041;SDS011;34859;51.608;11.462;2024-01-10T17:09:26;123.97;;;52.20;;
49041;SDS011;34859;51.608;11.462;2024-01-10T17:12:13;126.38;;;53.63;;
49041;SDS011;34859;51.608;11.462;2024-01-10T17:15:01;123.00;;;53.30;;
49041;SDS011;34859;51.608;11.462;2024-01-10T17:17:48;113.95;;;47.40;;
49041;SDS011;34859;51.608;11.462;2024-01-10T17:20:34;117.55;;;48.17;;
49041;SDS011;34859;51.608;11.462;2024-01-10T17:23:19;107.40;;;48.00;;
49041;SDS011;34859;51.608;11.462;2024-01-10T17:26:05;110.47;;;45.17;;
49041;SDS011;34859;51.608;11.462;2024-01-10T17:28:51;118.43;;;49.13;;
49041;SDS011;34859;51.608;11.462;2024-01-10T17:31:36;111.97;;;47.97;;
49041;SDS011;34859;51.608;11.462;2024-01-10T17:34:22;115.45;;;48.72;;
49041;SDS011;34859;51.608;11.462;2024-01-10T17:37:08;109.53;;;43.42;;
49041;SDS011;34859;51.608;11.462;2024-01-10T17:39:54;103.72;;;45.30;;
49041;SDS011;34859;51.608;11.462;2024-01-10T17:42:39;136.95;;;53.65;;
49041;SDS011;34859;51.608;11.462;2024-01-10T17:45:25;111.70;;;47.80;;
49041;SDS011;34859;51.608;11.462;2024-01-10T17:48:10;112.88;;;47.30;;
49041;SDS011;34859;51.608;11.462;2024-01-10T17:50:56;110.25;;;47.13;;
49041;SDS011;34859;51.608;11.462;2024-01-10T17:53:42;107.80;;;43.50;;
49041;SDS011;34859;51.608;11.462;2024-01-10T17:56:27;117.75;;;49.63;;
49041;SDS011;34859;51.608;11.462;2024-01-10T17:59:13;108.38;;;46.30;;
49041;SDS011;34859;51.608;11.462;2024-01-10T18:01:59;108.65;;;45.33;;
49041;SDS011;34859;51.608;11.462;2024-01-10T18:04:45;112.18;;;50.38;;
49041;SDS011;34859;51.608;11.462;2024-01-10T18:07:31;112.45;;;48.22;;
49041;SDS011;34859;51.608;11.462;2024-01-10T18:10:17;109.82;;;51.80;;
49041;SDS011;34859;51.608;11.462;2024-01-10T18:13:03;131.57;;;54.35;;
49041;SDS011;34859;51.608;11.462;2024-01-10T18:15:50;157.73;;;65.22;;
49041;SDS011;34859;51.608;11.462;2024-01-10T18:18:37;173.88;;;70.53;;
49041;SDS011;34859;51.608;11.462;2024-01-10T18:21:23;129.48;;;53.28;;
49041;SDS011;34859;51.608;11.462;2024-01-10T18:24:10;145.80;;;57.53;;
49041;SDS011;34859;51.608;11.462;2024-01-10T18:26:57;116.78;;;53.10;;
49041;SDS011;34859;51.608;11.462;2024-01-10T18:29:44;110.22;;;48.63;;
49041;SDS011;34859;51.608;11.462;2024-01-10T18:32:31;119.75;;;45.42;;
49041;SDS011;34859;51.608;11.462;2024-01-10T18:35:17;108.30;;;47.88;;
49041;SDS011;34859;51.608;11.462;2024-01-10T18:38:17;106.57;;;44.25;;
49041;SDS011;34859;51.608;11.462;2024-01-10T18:41:04;107.28;;;45.67;;
49041;SDS011;34859;51.608;11.462;2024-01-10T18:43:53;94.80;;;43.33;;
49041;SDS011;34859;51.608;11.462;2024-01-10T18:46:41;126.78;;;53.90;;
49041;SDS011;34859;51.608;11.462;2024-01-10T18:49:31;124.30;;;57.50;;
49041;SDS011;34859;51.608;11.462;2024-01-10T18:52:19;151.77;;;68.78;;
49041;SDS011;34859;51.608;11.462;2024-01-10T18:55:06;131.00;;;55.50;;
49041;SDS011;34859;51.608;11.462;2024-01-10T18:57:53;111.05;;;47.00;;
49041;SDS011;34859;51.608;11.462;2024-01-10T19:00:44;115.38;;;48.08;;
49041;SDS011;34859;51.608;11.462;2024-01-10T19:03:30;109.57;;;46.67;;
49041;SDS011;34859;51.608;11.462;2024-01-10T19:06:18;113.50;;;48.70;;
49041;SDS011;34859;51.608;11.462;2024-01-10T19:09:04;113.72;;;47.92;;
49041;SDS011;34859;51.608;11.462;2024-01-10T19:11:53;107.15;;;47.08;;
49041;SDS011;34859;51.608;11.462;2024-01-10T19:14:41;117.13;;;46.95;;
49041;SDS011;34859;51.608;11.462;2024-01-10T19:17:29;119.13;;;49.78;;
49041;SDS011;34859;51.608;11.462;2024-01-10T19:20:19;121.55;;;52.03;;
49041;SDS011;34859;51.608;11.462;2024-01-10T19:23:06;118.85;;;48.10;;
49041;SDS011;34859;51.608;11.462;2024-01-10T19:25:54;110.13;;;47.63;;
49041;SDS011;34859;51.608;11.462;2024-01-10T19:28:44;106.45;;;43.97;;
49041;SDS011;34859;51.608;11.462;2024-01-10T19:31:32;116.88;;;48.08;;
49041;SDS011;34859;51.608;11.462;2024-01-10T19:34:20;113.10;;;47.83;;
49041;SDS011;34859;51.608;11.462;2024-01-10T19:37:08;146.90;;;71.20;;
49041;SDS011;34859;51.608;11.462;2024-01-10T19:39:57;164.52;;;68.47;;
49041;SDS011;34859;51.608;11.462;2024-01-10T19:42:44;144.40;;;61.10;;
49041;SDS011;34859;51.608;11.462;2024-01-10T19:45:38;122.75;;;51.85;;
49041;SDS011;34859;51.608;11.462;2024-01-10T19:48:30;116.18;;;49.17;;
49041;SDS011;34859;51.608;11.462;2024-01-10T19:51:18;110.40;;;48.75;;
49041;SDS011;34859;51.608;11.462;2024-01-10T19:54:06;107.35;;;46.67;;
49041;SDS011;34859;51.608;11.462;2024-01-10T19:56:53;107.53;;;46.10;;
49041;SDS011;34859;51.608;11.462;2024-01-10T19:59:40;138.10;;;55.88;;
49041;SDS011;34859;51.608;11.462;2024-01-10T20:02:30;127.72;;;51.75;;
49041;SDS011;34859;51.608;11.462;2024-01-10T20:05:17;140.10;;;57.45;;
49041;SDS011;34859;51.608;11.462;2024-01-10T20:08:05;151.75;;;63.50;;
49041;SDS011;34859;51.608;11.462;2024-01-10T20:10:53;150.43;;;64.45;;
49041;SDS011;34859;51.608;11.462;2024-01-10T20:13:56;161.82;;;66.50;;
49041;SDS011;34859;51.608;11.462;2024-01-10T20:16:55;193.70;;;78.65;;
49041;SDS011;34859;51.608;11.462;2024-01-10T20:19:45;160.45;;;61.83;;
49041;SDS011;34859;51.608;11.462;2024-01-10T20:22:33;167.55;;;65.28;;
49041;SDS011;34859;51.608;11.462;2024-01-10T20:25:25;239.02;;;83.90;;
49041;SDS011;34859;51.608;11.462;2024-01-10T20:28:27;184.48;;;69.85;;
49041;SDS011;34859;51.608;11.462;2024-01-10T20:31:15;129.52;;;53.92;;
49041;SDS011;34859;51.608;11.462;2024-01-10T20:34:07;137.82;;;52.63;;
49041;SDS011;34859;51.608;11.462;2024-01-10T20:37:00;155.15;;;59.58;;
49041;SDS011;34859;51.608;11.462;2024-01-10T20:39:48;132.82;;;57.35;;
49041;SDS011;34859;51.608;11.462;2024-01-10T20:42:36;188.35;;;76.57;;
49041;SDS011;34859;51.608;11.462;2024-01-10T20:45:23;174.23;;;68.45;;
49041;SDS011;34859;51.608;11.462;2024-01-10T20:48:12;134.30;;;52.95;;
49041;SDS011;34859;51.608;11.462;2024-01-10T20:50:59;148.02;;;57.03;;
49041;SDS011;34859;51.608;11.462;2024-01-10T20:54:01;143.45;;;61.67;;
49041;SDS011;34859;51.608;11.462;2024-01-10T20:56:48;156.80;;;65.65;;
49041;SDS011;34859;51.608;11.462;2024-01-10T20:59:51;145.13;;;57.85;;
49041;SDS011;34859;51.608;11.462;2024-01-10T21:02:39;153.93;;;65.90;;
49041;SDS011;34859;51.608;11.462;2024-01-10T21:05:26;146.43;;;60.63;;
49041;SDS011;34859;51.608;11.462;2024-01-10T21:08:13;141.90;;;60.95;;
49041;SDS011;34859;51.608;11.462;2024-01-10T21:11:06;136.13;;;57.63;;
49041;SDS011;34859;51.608;11.462;2024-01-10T21:13:53;120.78;;;52.13;;
49041;SDS011;34859;51.608;11.462;2024-01-10T21:16:45;121.65;;;46.47;;
49041;SDS011;34859;51.608;11.462;2024-01-10T21:19:44;103.13;;;43.13;;
49041;SDS011;34859;51.608;11.462;2024-01-10T21:22:33;106.20;;;44.90;;
49041;SDS011;34859;51.608;11.462;2024-01-10T21:25:23;106.07;;;45.10;;
49041;SDS011;34859;51.608;11.462;2024-01-10T21:28:10;105.82;;;42.97;;
49041;SDS011;34859;51.608;11.462;2024-01-10T21:30:57;107.68;;;44.83;;
49041;SDS011;34859;51.608;11.462;2024-01-10T21:33:45;109.07;;;42.47;;
49041;SDS011;34859;51.608;11.462;2024-01-10T21:36:37;100.38;;;39.80;;
49041;SDS011;34859;51.608;11.462;2024-01-10T21:39:24;106.28;;;40.00;;
49041;SDS011;34859;51.608;11.462;2024-01-10T21:42:11;94.55;;;38.72;;
49041;SDS011;34859;51.608;11.462;2024-01-10T21:45:03;99.47;;;39.08;;
49041;SDS011;34859;51.608;11.462;2024-01-10T21:47:50;98.10;;;39.35;;
49041;SDS011;34859;51.608;11.462;2024-01-10T21:50:37;107.18;;;40.50;;
49041;SDS011;34859;51.608;11.462;2024-01-10T21:53:24;96.70;;;37.10;;
49041;SDS011;34859;51.608;11.462;2024-01-10T21:56:12;91.25;;;37.50;;
49041;SDS011;34859;51.608;11.462;2024-01-10T21:58:59;91.07;;;38.80;;
49041;SDS011;34859;51.608;11.462;2024-01-10T22:01:47;101.55;;;37.92;;
49041;SDS011;34859;51.608;11.462;2024-01-10T22:04:33;92.72;;;37.15;;
49041;SDS011;34859;51.608;11.462;2024-01-10T22:07:21;99.50;;;39.70;;
49041;SDS011;34859;51.608;11.462;2024-01-10T22:10:09;98.93;;;39.47;;
49041;SDS011;34859;51.608;11.462;2024-01-10T22:12:59;120.90;;;47.78;;
49041;SDS011;34859;51.608;11.462;2024-01-10T22:15:50;153.10;;;57.00;;
49041;SDS011;34859;51.608;11.462;2024-01-10T22:18:40;215.65;;;79.05;;
49041;SDS011;34859;51.608;11.462;2024-01-10T22:21:33;191.95;;;73.32;;
49041;SDS011;34859;51.608;11.462;2024-01-10T22:24:22;185.70;;;67.68;;
49041;SDS011;34859;51.608;11.462;2024-01-10T22:27:16;129.20;;;53.00;;
49041;SDS011;34859;51.608;11.462;2024-01-10T22:30:08;150.68;;;63.13;;
49041;SDS011;34859;51.608;11.462;2024-01-10T22:32:56;148.65;;;66.28;;
49041;SDS011;34859;51.608;11.462;2024-01-10T22:35:51;123.60;;;52.45;;
49041;SDS011;34859;51.608;11.462;2024-01-10T22:38:41;115.25;;;50.13;;
49041;SDS011;34859;51.608;11.462;2024-01-10T22:41:30;105.00;;;45.08;;
49041;SDS011;34859;51.608;11.462;2024-01-10T22:44:18;108.03;;;47.88;;
49041;SDS011;34859;51.608;11.462;2024-01-10T22:47:05;91.90;;;39.42;;
49041;SDS011;34859;51.608;11.462;2024-01-10T22:49:56;92.18;;;39.60;;
49041;SDS011;34859;51.608;11.462;2024-01-10T22:52:44;96.40;;;38.92;;
49041;SDS011;34859;51.608;11.462;2024-01-10T22:55:35;89.88;;;37.60;;
49041;SDS011;34859;51.608;11.462;2024-01-10T22:58:22;91.03;;;36.50;;
49041;SDS011;34859;51.608;11.462;2024-01-10T23:01:10;83.88;;;35.63;;
49041;SDS011;34859;51.608;11.462;2024-01-10T23:03:59;96.13;;;35.85;;
49041;SDS011;34859;51.608;11.462;2024-01-10T23:06:48;93.97;;;34.97;;
49041;SDS011;34859;51.608;11.462;2024-01-10T23:09:38;94.18;;;36.80;;
49041;SDS011;34859;51.608;11.462;2024-01-10T23:12:25;87.28;;;33.95;;
49041;SDS011;34859;51.608;11.462;2024-01-10T23:15:16;89.07;;;34.40;;
49041;SDS011;34859;51.608;11.462;2024-01-10T23:18:06;83.47;;;34.47;;
49041;SDS011;34859;51.608;11.462;2024-01-10T23:20:55;89.13;;;33.58;;
49041;SDS011;34859;51.608;11.462;2024-01-10T23:23:43;97.07;;;34.75;;
49041;SDS011;34859;51.608;11.462;2024-01-10T23:26:29;85.03;;;35.60;;
49041;SDS011;34859;51.608;11.462;2024-01-10T23:29:22;95.55;;;35.67;;
49041;SDS011;34859;51.608;11.462;2024-01-10T23:32:33;90.07;;;36.45;;
49041;SDS011;34859;51.608;11.462;2024-01-10T23:35:25;90.68;;;35.53;;
49041;SDS011;34859;51.608;11.462;2024-01-10T23:38:22;88.35;;;34.10;;
49041;SDS011;34859;51.608;11.462;2024-01-10T23:41:06;93.53;;;36.00;;
49041;SDS011;34859;51.608;11.462;2024-01-10T23:43:50;94.38;;;35.78;;
49041;SDS011;34859;51.608;11.462;2024-01-10T23:46:35;89.40;;;33.78;;
49041;SDS011;34859;51.608;11.462;2024-01-10T23:49:19;89.40;;;33.88;;
49041;SDS011;34859;51.608;11.462;2024-01-10T23:52:03;81.68;;;31.95;;
49041;SDS011;34859;51.608;11.462;2024-01-10T23:54:47;86.03;;;33.30;;
49041;SDS011;34859;51.608;11.462;2024-01-10T23:57:31;92.13;;;34.95;;
